sensor_id;sensor_type;location;lat;lon;timestamp;P1;durP1;ratioP1;P2;durP2;ratioP2
19384;SDS011;9828;54.122;17.974;2023-09-30T00:04:10;14.02;;;10.35;;
19384;SDS011;9828;54.122;17.974;2023-09-30T00:09:31;13.25;;;10.32;;
19384;SDS011;9828;54.122;17.974;2023-09-30T00:14:52;12.90;;;10.30;;
19384;SDS011;9828;54.122;17.974;2023-09-30T00:20:13;12.30;;;10.55;;
19384;SDS011;9828;54.122;17.974;2023-09-30T00:25:38;11.27;;;10.13;;
19384;SDS011;9828;54.122;17.974;2023-09-30T00:31:00;12.95;;;10.15;;
19384;SDS011;9828;54.122;17.974;2023-09-30T00:36:21;11.65;;;9.98;;
19384;SDS011;9828;54.122;17.974;2023-09-30T00:41:42;11.02;;;10.02;;
19384;SDS011;9828;54.122;17.974;2023-09-30T00:47:03;10.95;;;9.38;;
19384;SDS011;9828;54.122;17.974;2023-09-30T00:52:26;11.50;;;9.82;;
19384;SDS011;9828;54.122;17.974;2023-09-30T00:57:48;14.32;;;9.70;;
19384;SDS011;9828;54.122;17.974;2023-09-30T01:03:09;11.52;;;8.85;;
19384;SDS011;9828;54.122;17.974;2023-09-30T01:08:32;11.63;;;9.30;;
19384;SDS011;9828;54.122;17.974;2023-09-30T01:13:55;12.35;;;9.55;;
19384;SDS011;9828;54.122;17.974;2023-09-30T01:19:16;10.85;;;9.15;;
19384;SDS011;9828;54.122;17.974;2023-09-30T01:24:39;10.95;;;8.80;;
19384;SDS011;9828;54.122;17.974;2023-09-30T01:30:00;10.70;;;8.98;;
19384;SDS011;9828;54.122;17.974;2023-09-30T01:35:22;12.40;;;7.88;;
19384;SDS011;9828;54.122;17.974;2023-09-30T01:40:43;9.35;;;7.63;;
19384;SDS011;9828;54.122;17.974;2023-09-30T01:46:05;12.23;;;8.23;;
19384;SDS011;9828;54.122;17.974;2023-09-30T01:51:26;11.63;;;8.82;;
19384;SDS011;9828;54.122;17.974;2023-09-30T01:56:51;11.93;;;8.38;;
19384;SDS011;9828;54.122;17.974;2023-09-30T02:02:13;9.68;;;7.90;;
19384;SDS011;9828;54.122;17.974;2023-09-30T02:07:34;12.35;;;8.55;;
19384;SDS011;9828;54.122;17.974;2023-09-30T02:12:57;10.75;;;8.95;;
19384;SDS011;9828;54.122;17.974;2023-09-30T02:18:19;12.25;;;8.77;;
19384;SDS011;9828;54.122;17.974;2023-09-30T02:23:41;14.00;;;8.02;;
19384;SDS011;9828;54.122;17.974;2023-09-30T02:29:02;12.40;;;8.15;;
19384;SDS011;9828;54.122;17.974;2023-09-30T02:34:23;12.15;;;7.07;;
19384;SDS011;9828;54.122;17.974;2023-09-30T02:39:45;10.25;;;6.35;;
19384;SDS011;9828;54.122;17.974;2023-09-30T02:45:07;8.43;;;5.78;;
19384;SDS011;9828;54.122;17.974;2023-09-30T02:50:28;10.25;;;6.47;;
19384;SDS011;9828;54.122;17.974;2023-09-30T02:55:53;9.02;;;5.55;;
19384;SDS011;9828;54.122;17.974;2023-09-30T03:01:17;9.07;;;5.35;;
19384;SDS011;9828;54.122;17.974;2023-09-30T03:06:38;10.43;;;5.43;;
19384;SDS011;9828;54.122;17.974;2023-09-30T03:12:00;7.68;;;5.10;;
19384;SDS011;9828;54.122;17.974;2023-09-30T03:17:21;8.40;;;4.75;;
19384;SDS011;9828;54.122;17.974;2023-09-30T03:22:42;8.18;;;4.60;;
19384;SDS011;9828;54.122;17.974;2023-09-30T03:28:04;6.57;;;3.90;;
19384;SDS011;9828;54.122;17.974;2023-09-30T03:33:26;5.70;;;2.92;;
19384;SDS011;9828;54.122;17.974;2023-09-30T03:38:47;4.53;;;2.10;;
19384;SDS011;9828;54.122;17.974;2023-09-30T03:44:09;3.20;;;1.30;;
19384;SDS011;9828;54.122;17.974;2023-09-30T03:49:30;1.67;;;1.15;;
19384;SDS011;9828;54.122;17.974;2023-09-30T03:54:52;2.30;;;1.02;;
19384;SDS011;9828;54.122;17.974;2023-09-30T04:00:14;4.70;;;1.20;;
19384;SDS011;9828;54.122;17.974;2023-09-30T04:05:39;1.02;;;0.90;;
19384;SDS011;9828;54.122;17.974;2023-09-30T04:11:02;2.47;;;1.02;;
19384;SDS011;9828;54.122;17.974;2023-09-30T04:16:24;2.85;;;1.45;;
19384;SDS011;9828;54.122;17.974;2023-09-30T04:21:49;8.27;;;1.85;;
19384;SDS011;9828;54.122;17.974;2023-09-30T04:27:11;5.32;;;2.38;;
19384;SDS011;9828;54.122;17.974;2023-09-30T04:32:32;6.78;;;2.17;;
19384;SDS011;9828;54.122;17.974;2023-09-30T04:37:53;5.72;;;2.00;;
19384;SDS011;9828;54.122;17.974;2023-09-30T04:43:14;11.57;;;3.03;;
19384;SDS011;9828;54.122;17.974;2023-09-30T04:48:37;7.53;;;2.13;;
19384;SDS011;9828;54.122;17.974;2023-09-30T04:53:59;5.80;;;2.28;;
19384;SDS011;9828;54.122;17.974;2023-09-30T04:59:20;9.05;;;2.30;;
19384;SDS011;9828;54.122;17.974;2023-09-30T05:04:41;7.93;;;2.70;;
19384;SDS011;9828;54.122;17.974;2023-09-30T05:10:05;7.07;;;2.78;;
19384;SDS011;9828;54.122;17.974;2023-09-30T05:15:30;9.10;;;2.85;;
19384;SDS011;9828;54.122;17.974;2023-09-30T05:20:53;9.45;;;2.90;;
19384;SDS011;9828;54.122;17.974;2023-09-30T05:26:14;11.73;;;3.05;;
19384;SDS011;9828;54.122;17.974;2023-09-30T05:31:35;6.47;;;2.75;;
19384;SDS011;9828;54.122;17.974;2023-09-30T05:36:57;7.90;;;2.65;;
19384;SDS011;9828;54.122;17.974;2023-09-30T05:42:18;5.93;;;2.55;;
19384;SDS011;9828;54.122;17.974;2023-09-30T05:47:39;8.02;;;2.83;;
19384;SDS011;9828;54.122;17.974;2023-09-30T05:53:01;15.15;;;3.17;;
19384;SDS011;9828;54.122;17.974;2023-09-30T05:58:22;10.60;;;2.85;;
19384;SDS011;9828;54.122;17.974;2023-09-30T06:03:45;10.50;;;3.30;;
19384;SDS011;9828;54.122;17.974;2023-09-30T06:09:07;11.23;;;3.03;;
19384;SDS011;9828;54.122;17.974;2023-09-30T06:14:28;8.65;;;2.67;;
19384;SDS011;9828;54.122;17.974;2023-09-30T06:19:51;9.27;;;2.97;;
19384;SDS011;9828;54.122;17.974;2023-09-30T06:25:13;12.38;;;3.20;;
19384;SDS011;9828;54.122;17.974;2023-09-30T06:30:36;8.02;;;2.88;;
19384;SDS011;9828;54.122;17.974;2023-09-30T06:35:58;11.43;;;2.95;;
19384;SDS011;9828;54.122;17.974;2023-09-30T06:41:22;10.60;;;3.08;;
19384;SDS011;9828;54.122;17.974;2023-09-30T06:46:44;8.13;;;2.97;;
19384;SDS011;9828;54.122;17.974;2023-09-30T06:52:05;9.90;;;3.63;;
19384;SDS011;9828;54.122;17.974;2023-09-30T06:57:26;6.00;;;2.70;;
19384;SDS011;9828;54.122;17.974;2023-09-30T07:02:47;10.38;;;3.30;;
19384;SDS011;9828;54.122;17.974;2023-09-30T07:08:11;10.45;;;3.40;;
19384;SDS011;9828;54.122;17.974;2023-09-30T07:13:33;7.00;;;2.58;;
19384;SDS011;9828;54.122;17.974;2023-09-30T07:18:54;7.38;;;2.97;;
19384;SDS011;9828;54.122;17.974;2023-09-30T07:24:16;6.18;;;2.60;;
19384;SDS011;9828;54.122;17.974;2023-09-30T07:29:37;11.68;;;3.55;;
19384;SDS011;9828;54.122;17.974;2023-09-30T07:34:59;9.32;;;3.05;;
19384;SDS011;9828;54.122;17.974;2023-09-30T07:40:20;9.90;;;2.97;;
19384;SDS011;9828;54.122;17.974;2023-09-30T07:45:41;10.77;;;2.90;;
19384;SDS011;9828;54.122;17.974;2023-09-30T07:51:05;9.10;;;2.92;;
19384;SDS011;9828;54.122;17.974;2023-09-30T07:56:30;6.93;;;3.05;;
19384;SDS011;9828;54.122;17.974;2023-09-30T08:01:51;7.30;;;2.75;;
19384;SDS011;9828;54.122;17.974;2023-09-30T08:07:15;9.55;;;2.72;;
19384;SDS011;9828;54.122;17.974;2023-09-30T08:12:36;8.05;;;3.35;;
19384;SDS011;9828;54.122;17.974;2023-09-30T08:17:57;9.07;;;2.90;;
19384;SDS011;9828;54.122;17.974;2023-09-30T08:23:19;8.30;;;2.60;;
19384;SDS011;9828;54.122;17.974;2023-09-30T08:28:41;4.75;;;2.30;;
19384;SDS011;9828;54.122;17.974;2023-09-30T08:34:02;8.30;;;2.47;;
19384;SDS011;9828;54.122;17.974;2023-09-30T08:39:24;7.82;;;2.60;;
19384;SDS011;9828;54.122;17.974;2023-09-30T08:44:45;9.93;;;2.95;;
19384;SDS011;9828;54.122;17.974;2023-09-30T08:50:08;13.40;;;3.05;;
19384;SDS011;9828;54.122;17.974;2023-09-30T08:55:31;8.40;;;2.47;;
19384;SDS011;9828;54.122;17.974;2023-09-30T09:00:54;8.68;;;2.72;;
19384;SDS011;9828;54.122;17.974;2023-09-30T09:06:17;9.27;;;2.40;;
19384;SDS011;9828;54.122;17.974;2023-09-30T09:11:38;5.85;;;1.77;;
19384;SDS011;9828;54.122;17.974;2023-09-30T09:17:00;8.65;;;2.97;;
19384;SDS011;9828;54.122;17.974;2023-09-30T09:22:21;7.32;;;2.58;;
19384;SDS011;9828;54.122;17.974;2023-09-30T09:27:43;7.18;;;2.40;;
19384;SDS011;9828;54.122;17.974;2023-09-30T09:33:04;7.10;;;2.58;;
19384;SDS011;9828;54.122;17.974;2023-09-30T09:38:26;10.02;;;3.00;;
19384;SDS011;9828;54.122;17.974;2023-09-30T09:44:06;5.80;;;2.28;;
19384;SDS011;9828;54.122;17.974;2023-09-30T09:49:28;5.95;;;2.25;;
19384;SDS011;9828;54.122;17.974;2023-09-30T09:54:51;11.80;;;2.88;;
19384;SDS011;9828;54.122;17.974;2023-09-30T10:00:14;8.07;;;2.35;;
19384;SDS011;9828;54.122;17.974;2023-09-30T10:05:39;9.95;;;2.60;;
19384;SDS011;9828;54.122;17.974;2023-09-30T10:11:01;7.65;;;2.83;;
19384;SDS011;9828;54.122;17.974;2023-09-30T10:17:06;5.75;;;2.15;;
19384;SDS011;9828;54.122;17.974;2023-09-30T10:27:40;6.47;;;2.45;;
19384;SDS011;9828;54.122;17.974;2023-09-30T10:43:51;16.25;;;3.00;;
19384;SDS011;9828;54.122;17.974;2023-09-30T10:49:16;10.00;;;2.95;;
19384;SDS011;9828;54.122;17.974;2023-09-30T10:54:38;10.18;;;3.28;;
19384;SDS011;9828;54.122;17.974;2023-09-30T11:00:12;6.90;;;2.78;;
19384;SDS011;9828;54.122;17.974;2023-09-30T11:05:37;9.82;;;2.90;;
19384;SDS011;9828;54.122;17.974;2023-09-30T11:11:13;7.30;;;2.50;;
19384;SDS011;9828;54.122;17.974;2023-09-30T11:16:41;5.03;;;2.03;;
19384;SDS011;9828;54.122;17.974;2023-09-30T11:22:06;8.70;;;2.60;;
19384;SDS011;9828;54.122;17.974;2023-09-30T11:27:28;9.13;;;2.88;;
19384;SDS011;9828;54.122;17.974;2023-09-30T11:32:57;11.07;;;2.50;;
19384;SDS011;9828;54.122;17.974;2023-09-30T11:38:20;9.15;;;2.72;;
19384;SDS011;9828;54.122;17.974;2023-09-30T11:43:58;11.30;;;2.70;;
19384;SDS011;9828;54.122;17.974;2023-09-30T11:49:37;6.78;;;2.70;;
19384;SDS011;9828;54.122;17.974;2023-09-30T11:54:59;13.35;;;3.15;;
19384;SDS011;9828;54.122;17.974;2023-09-30T12:00:21;10.38;;;3.15;;
19384;SDS011;9828;54.122;17.974;2023-09-30T12:05:45;11.50;;;3.05;;
19384;SDS011;9828;54.122;17.974;2023-09-30T12:11:06;8.50;;;2.67;;
19384;SDS011;9828;54.122;17.974;2023-09-30T12:16:27;8.63;;;2.92;;
19384;SDS011;9828;54.122;17.974;2023-09-30T12:21:49;9.48;;;2.85;;
19384;SDS011;9828;54.122;17.974;2023-09-30T12:27:11;12.27;;;3.00;;
19384;SDS011;9828;54.122;17.974;2023-09-30T12:32:32;11.70;;;2.72;;
19384;SDS011;9828;54.122;17.974;2023-09-30T12:37:53;9.65;;;2.75;;
19384;SDS011;9828;54.122;17.974;2023-09-30T12:43:15;9.10;;;2.75;;
19384;SDS011;9828;54.122;17.974;2023-09-30T12:48:36;10.38;;;2.70;;
19384;SDS011;9828;54.122;17.974;2023-09-30T12:53:59;12.32;;;3.55;;
19384;SDS011;9828;54.122;17.974;2023-09-30T12:59:20;9.63;;;3.45;;
19384;SDS011;9828;54.122;17.974;2023-09-30T13:04:46;8.80;;;2.67;;
19384;SDS011;9828;54.122;17.974;2023-09-30T13:10:08;10.68;;;2.65;;
19384;SDS011;9828;54.122;17.974;2023-09-30T13:15:30;9.70;;;2.55;;
19384;SDS011;9828;54.122;17.974;2023-09-30T13:20:51;10.48;;;2.88;;
19384;SDS011;9828;54.122;17.974;2023-09-30T13:26:15;11.18;;;3.22;;
19384;SDS011;9828;54.122;17.974;2023-09-30T13:31:37;7.32;;;2.42;;
19384;SDS011;9828;54.122;17.974;2023-09-30T13:36:59;6.43;;;2.30;;
19384;SDS011;9828;54.122;17.974;2023-09-30T13:42:20;6.82;;;2.13;;
19384;SDS011;9828;54.122;17.974;2023-09-30T13:47:41;6.20;;;2.47;;
19384;SDS011;9828;54.122;17.974;2023-09-30T13:53:02;7.35;;;2.65;;
19384;SDS011;9828;54.122;17.974;2023-09-30T13:58:24;4.85;;;2.30;;
19384;SDS011;9828;54.122;17.974;2023-09-30T14:03:45;6.38;;;1.88;;
19384;SDS011;9828;54.122;17.974;2023-09-30T14:09:09;8.48;;;2.20;;
19384;SDS011;9828;54.122;17.974;2023-09-30T14:14:44;11.95;;;2.38;;
19384;SDS011;9828;54.122;17.974;2023-09-30T14:20:05;12.30;;;2.97;;
19384;SDS011;9828;54.122;17.974;2023-09-30T14:25:27;9.57;;;2.67;;
19384;SDS011;9828;54.122;17.974;2023-09-30T14:30:48;6.38;;;2.42;;
19384;SDS011;9828;54.122;17.974;2023-09-30T14:36:13;8.55;;;2.67;;
19384;SDS011;9828;54.122;17.974;2023-09-30T14:41:34;8.13;;;2.20;;
19384;SDS011;9828;54.122;17.974;2023-09-30T14:46:55;9.55;;;2.70;;
19384;SDS011;9828;54.122;17.974;2023-09-30T14:52:18;8.68;;;2.25;;
19384;SDS011;9828;54.122;17.974;2023-09-30T14:57:40;11.45;;;2.55;;
19384;SDS011;9828;54.122;17.974;2023-09-30T15:03:01;7.88;;;2.50;;
19384;SDS011;9828;54.122;17.974;2023-09-30T15:08:23;8.75;;;2.40;;
19384;SDS011;9828;54.122;17.974;2023-09-30T15:13:44;8.52;;;2.72;;
19384;SDS011;9828;54.122;17.974;2023-09-30T15:19:06;7.05;;;2.65;;
19384;SDS011;9828;54.122;17.974;2023-09-30T15:24:28;8.07;;;2.42;;
19384;SDS011;9828;54.122;17.974;2023-09-30T15:29:52;6.97;;;2.33;;
19384;SDS011;9828;54.122;17.974;2023-09-30T15:35:13;8.68;;;2.60;;
19384;SDS011;9828;54.122;17.974;2023-09-30T15:46:13;6.53;;;2.50;;
19384;SDS011;9828;54.122;17.974;2023-09-30T15:51:35;10.10;;;2.97;;
19384;SDS011;9828;54.122;17.974;2023-09-30T15:56:59;10.32;;;2.58;;
19384;SDS011;9828;54.122;17.974;2023-09-30T16:02:28;10.02;;;2.72;;
19384;SDS011;9828;54.122;17.974;2023-09-30T16:07:52;11.43;;;2.67;;
19384;SDS011;9828;54.122;17.974;2023-09-30T16:13:13;7.38;;;3.08;;
19384;SDS011;9828;54.122;17.974;2023-09-30T16:18:34;10.02;;;2.85;;
19384;SDS011;9828;54.122;17.974;2023-09-30T16:23:56;16.35;;;2.45;;
19384;SDS011;9828;54.122;17.974;2023-09-30T16:29:18;8.15;;;2.88;;
19384;SDS011;9828;54.122;17.974;2023-09-30T16:34:39;9.13;;;2.80;;
19384;SDS011;9828;54.122;17.974;2023-09-30T16:40:00;10.10;;;2.97;;
19384;SDS011;9828;54.122;17.974;2023-09-30T16:45:22;4.97;;;1.73;;
19384;SDS011;9828;54.122;17.974;2023-09-30T16:50:45;6.65;;;2.30;;
19384;SDS011;9828;54.122;17.974;2023-09-30T16:56:07;8.75;;;2.65;;
19384;SDS011;9828;54.122;17.974;2023-09-30T17:01:28;10.00;;;2.42;;
19384;SDS011;9828;54.122;17.974;2023-09-30T17:06:50;12.98;;;3.72;;
19384;SDS011;9828;54.122;17.974;2023-09-30T17:12:11;8.43;;;2.85;;
19384;SDS011;9828;54.122;17.974;2023-09-30T17:17:34;10.57;;;3.70;;
19384;SDS011;9828;54.122;17.974;2023-09-30T17:22:55;14.80;;;3.63;;
19384;SDS011;9828;54.122;17.974;2023-09-30T17:28:16;7.15;;;2.38;;
19384;SDS011;9828;54.122;17.974;2023-09-30T17:33:39;11.88;;;2.40;;
19384;SDS011;9828;54.122;17.974;2023-09-30T17:39:01;10.73;;;2.67;;
19384;SDS011;9828;54.122;17.974;2023-09-30T17:44:23;8.88;;;2.33;;
19384;SDS011;9828;54.122;17.974;2023-09-30T17:49:44;8.43;;;2.60;;
19384;SDS011;9828;54.122;17.974;2023-09-30T17:55:06;6.20;;;2.60;;
19384;SDS011;9828;54.122;17.974;2023-09-30T18:00:28;10.52;;;2.60;;
19384;SDS011;9828;54.122;17.974;2023-09-30T18:05:49;6.60;;;2.30;;
19384;SDS011;9828;54.122;17.974;2023-09-30T18:11:10;10.38;;;2.22;;
19384;SDS011;9828;54.122;17.974;2023-09-30T18:16:32;9.95;;;2.70;;
19384;SDS011;9828;54.122;17.974;2023-09-30T18:21:53;8.45;;;2.60;;
19384;SDS011;9828;54.122;17.974;2023-09-30T18:27:15;8.48;;;2.70;;
19384;SDS011;9828;54.122;17.974;2023-09-30T18:32:36;9.93;;;2.78;;
19384;SDS011;9828;54.122;17.974;2023-09-30T18:37:58;9.88;;;2.47;;
19384;SDS011;9828;54.122;17.974;2023-09-30T18:43:19;13.15;;;2.70;;
19384;SDS011;9828;54.122;17.974;2023-09-30T18:48:42;8.30;;;2.42;;
19384;SDS011;9828;54.122;17.974;2023-09-30T18:54:03;6.85;;;2.20;;
19384;SDS011;9828;54.122;17.974;2023-09-30T18:59:28;8.05;;;2.60;;
19384;SDS011;9828;54.122;17.974;2023-09-30T19:04:49;6.43;;;2.45;;
19384;SDS011;9828;54.122;17.974;2023-09-30T19:10:10;9.82;;;2.85;;
19384;SDS011;9828;54.122;17.974;2023-09-30T19:15:31;9.82;;;2.38;;
19384;SDS011;9828;54.122;17.974;2023-09-30T19:20:52;6.93;;;2.63;;
19384;SDS011;9828;54.122;17.974;2023-09-30T19:26:14;9.18;;;2.67;;
19384;SDS011;9828;54.122;17.974;2023-09-30T19:31:36;8.75;;;2.42;;
19384;SDS011;9828;54.122;17.974;2023-09-30T19:36:57;13.50;;;3.08;;
19384;SDS011;9828;54.122;17.974;2023-09-30T19:42:18;7.95;;;2.53;;
19384;SDS011;9828;54.122;17.974;2023-09-30T19:47:40;7.78;;;2.72;;
19384;SDS011;9828;54.122;17.974;2023-09-30T19:53:01;6.57;;;2.50;;
19384;SDS011;9828;54.122;17.974;2023-09-30T19:58:24;6.72;;;2.40;;
19384;SDS011;9828;54.122;17.974;2023-09-30T20:03:45;6.97;;;2.13;;
19384;SDS011;9828;54.122;17.974;2023-09-30T20:09:06;6.25;;;2.50;;
19384;SDS011;9828;54.122;17.974;2023-09-30T20:14:28;7.72;;;2.63;;
19384;SDS011;9828;54.122;17.974;2023-09-30T20:19:52;9.63;;;2.15;;
19384;SDS011;9828;54.122;17.974;2023-09-30T20:25:13;10.43;;;2.53;;
19384;SDS011;9828;54.122;17.974;2023-09-30T20:30:35;8.90;;;2.40;;
19384;SDS011;9828;54.122;17.974;2023-09-30T20:35:57;10.90;;;2.80;;
19384;SDS011;9828;54.122;17.974;2023-09-30T20:41:18;13.80;;;2.65;;
19384;SDS011;9828;54.122;17.974;2023-09-30T20:46:40;7.57;;;2.30;;
19384;SDS011;9828;54.122;17.974;2023-09-30T20:52:03;6.00;;;1.90;;
19384;SDS011;9828;54.122;17.974;2023-09-30T20:57:24;7.28;;;2.25;;
19384;SDS011;9828;54.122;17.974;2023-09-30T21:02:45;8.20;;;2.95;;
19384;SDS011;9828;54.122;17.974;2023-09-30T21:08:06;12.73;;;2.92;;
19384;SDS011;9828;54.122;17.974;2023-09-30T21:13:28;15.15;;;2.60;;
19384;SDS011;9828;54.122;17.974;2023-09-30T21:18:49;10.48;;;2.60;;
19384;SDS011;9828;54.122;17.974;2023-09-30T21:24:10;7.13;;;2.25;;
19384;SDS011;9828;54.122;17.974;2023-09-30T21:29:31;10.30;;;3.13;;
19384;SDS011;9828;54.122;17.974;2023-09-30T21:34:53;11.02;;;2.85;;
19384;SDS011;9828;54.122;17.974;2023-09-30T21:40:14;9.40;;;3.22;;
19384;SDS011;9828;54.122;17.974;2023-09-30T21:45:36;10.90;;;2.95;;
19384;SDS011;9828;54.122;17.974;2023-09-30T21:50:57;8.55;;;2.63;;
19384;SDS011;9828;54.122;17.974;2023-09-30T21:56:19;9.45;;;2.92;;
19384;SDS011;9828;54.122;17.974;2023-09-30T22:01:40;8.30;;;2.30;;
19384;SDS011;9828;54.122;17.974;2023-09-30T22:07:02;6.47;;;2.38;;
19384;SDS011;9828;54.122;17.974;2023-09-30T22:12:23;7.43;;;2.65;;
19384;SDS011;9828;54.122;17.974;2023-09-30T22:17:44;9.13;;;2.67;;
19384;SDS011;9828;54.122;17.974;2023-09-30T22:23:07;10.90;;;2.90;;
19384;SDS011;9828;54.122;17.974;2023-09-30T22:28:29;7.82;;;2.65;;
19384;SDS011;9828;54.122;17.974;2023-09-30T22:33:51;10.43;;;2.55;;
19384;SDS011;9828;54.122;17.974;2023-09-30T22:39:11;9.93;;;2.80;;
19384;SDS011;9828;54.122;17.974;2023-09-30T22:44:33;5.55;;;2.38;;
19384;SDS011;9828;54.122;17.974;2023-09-30T22:49:55;11.98;;;2.35;;
19384;SDS011;9828;54.122;17.974;2023-09-30T22:55:20;9.93;;;2.50;;
19384;SDS011;9828;54.122;17.974;2023-09-30T23:00:43;11.23;;;2.25;;
19384;SDS011;9828;54.122;17.974;2023-09-30T23:06:04;8.60;;;2.45;;
19384;SDS011;9828;54.122;17.974;2023-09-30T23:11:26;8.88;;;2.03;;
19384;SDS011;9828;54.122;17.974;2023-09-30T23:16:48;10.00;;;2.33;;
19384;SDS011;9828;54.122;17.974;2023-09-30T23:22:09;8.18;;;2.47;;
19384;SDS011;9828;54.122;17.974;2023-09-30T23:27:31;9.65;;;2.70;;
19384;SDS011;9828;54.122;17.974;2023-09-30T23:32:52;12.02;;;2.40;;
19384;SDS011;9828;54.122;17.974;2023-09-30T23:38:14;7.03;;;2.35;;
19384;SDS011;9828;54.122;17.974;2023-09-30T23:43:35;9.60;;;2.20;;
19384;SDS011;9828;54.122;17.974;2023-09-30T23:48:56;7.70;;;2.00;;
19384;SDS011;9828;54.122;17.974;2023-09-30T23:54:18;7.00;;;2.70;;
19384;SDS011;9828;54.122;17.974;2023-09-30T23:59:40;6.18;;;2.30;;
